createdAt,value
2023-03-16T00:01:40.543Z,1010.90
2023-03-16T00:04:13.553Z,1010.90
2023-03-16T00:06:46.745Z,1010.93
2023-03-16T00:09:19.652Z,1010.94
2023-03-16T00:11:52.765Z,1010.92
2023-03-16T00:14:25.695Z,1010.95
2023-03-16T00:16:58.684Z,1010.95
2023-03-16T00:19:31.711Z,1010.96
2023-03-16T00:22:04.691Z,1010.96
2023-03-16T00:24:37.755Z,1010.97
2023-03-16T00:27:10.681Z,1010.97
2023-03-16T00:29:43.918Z,1010.98
2023-03-16T00:32:17.639Z,1010.98
2023-03-16T00:34:50.799Z,1010.99
2023-03-16T00:37:24.108Z,1010.98
2023-03-16T00:39:56.685Z,1010.98
2023-03-16T00:42:29.790Z,1010.96
2023-03-16T00:45:02.702Z,1010.93
2023-03-16T00:47:35.596Z,1010.92
2023-03-16T00:50:08.725Z,1010.91
2023-03-16T00:52:41.924Z,1010.91
2023-03-16T00:55:15.952Z,1010.90
2023-03-16T00:57:49.595Z,1010.89
2023-03-16T01:00:22.739Z,1010.89
2023-03-16T01:02:55.882Z,1010.89
2023-03-16T01:05:28.977Z,1010.89
2023-03-16T01:08:02.847Z,1010.88
2023-03-16T01:10:35.626Z,1010.85
2023-03-16T01:13:08.753Z,1010.81
2023-03-16T01:15:41.579Z,1010.78
2023-03-16T01:18:14.806Z,1010.75
2023-03-16T01:20:50.790Z,1010.74
2023-03-16T01:23:23.878Z,1010.74
2023-03-16T01:25:57.038Z,1010.73
2023-03-16T01:28:30.643Z,1010.72
2023-03-16T01:31:03.864Z,1010.72
2023-03-16T01:33:36.936Z,1010.71
2023-03-16T01:36:09.796Z,1010.71
2023-03-16T01:38:43.236Z,1010.70
2023-03-16T01:41:15.490Z,1010.71
2023-03-16T01:43:48.617Z,1010.70
2023-03-16T01:46:25.093Z,1010.70
2023-03-16T01:48:57.506Z,1010.68
2023-03-16T01:51:31.058Z,1010.65
2023-03-16T01:54:04.850Z,1010.63
2023-03-16T01:56:37.666Z,1010.60
2023-03-16T01:59:10.847Z,1010.55
2023-03-16T02:01:43.730Z,1010.51
2023-03-16T02:04:16.608Z,1010.49
2023-03-16T02:06:49.654Z,1010.49
2023-03-16T02:09:22.849Z,1010.50
2023-03-16T02:11:58.857Z,1010.49
2023-03-16T02:14:31.724Z,1010.47
2023-03-16T02:19:54.705Z,1010.40
2023-03-16T02:22:27.667Z,1010.34
2023-03-16T02:25:00.626Z,1010.33
2023-03-16T02:27:34.074Z,1010.29
2023-03-16T02:30:07.604Z,1010.28
2023-03-16T02:32:40.819Z,1010.24
2023-03-16T02:35:14.014Z,1010.20
2023-03-16T02:37:46.699Z,1010.19
2023-03-16T02:40:19.622Z,1010.17
2023-03-16T02:42:52.899Z,1010.13
2023-03-16T02:45:25.957Z,1010.12
2023-03-16T02:47:59.163Z,1010.10
2023-03-16T02:50:32.996Z,1010.08
2023-03-16T02:53:05.876Z,1010.08
2023-03-16T02:55:38.962Z,1010.05
2023-03-16T02:58:11.930Z,1010.02
2023-03-16T03:00:44.742Z,1010.00
2023-03-16T03:03:17.722Z,1009.98
2023-03-16T03:05:51.089Z,1009.94
2023-03-16T03:08:25.071Z,1009.92
2023-03-16T03:10:57.970Z,1009.89
2023-03-16T03:13:30.774Z,1009.88
2023-03-16T03:16:03.772Z,1009.84
2023-03-16T03:18:36.756Z,1009.82
2023-03-16T03:21:09.664Z,1009.79
2023-03-16T03:23:43.015Z,1009.79
2023-03-16T03:26:16.171Z,1009.79
2023-03-16T03:28:50.076Z,1009.81
2023-03-16T03:31:22.771Z,1009.81
2023-03-16T03:33:55.999Z,1009.80
2023-03-16T03:36:29.004Z,1009.79
2023-03-16T03:39:01.722Z,1009.77
2023-03-16T03:41:35.025Z,1009.75
2023-03-16T03:44:08.011Z,1009.73
2023-03-16T03:46:43.880Z,1009.70
2023-03-16T03:49:16.818Z,1009.67
2023-03-16T03:51:49.821Z,1009.65
2023-03-16T03:54:22.883Z,1009.63
2023-03-16T03:56:56.072Z,1009.62
2023-03-16T03:59:28.803Z,1009.61
2023-03-16T04:02:02.159Z,1009.62
2023-03-16T04:04:35.034Z,1009.64
2023-03-16T04:07:07.782Z,1009.62
2023-03-16T04:09:41.099Z,1009.63
2023-03-16T04:12:13.771Z,1009.61
2023-03-16T04:14:49.835Z,1009.61
2023-03-16T04:17:22.824Z,1009.62
2023-03-16T04:19:55.987Z,1009.64
2023-03-16T04:22:29.137Z,1009.64
2023-03-16T04:25:02.048Z,1009.66
2023-03-16T04:27:34.896Z,1009.67
2023-03-16T04:30:08.028Z,1009.68
2023-03-16T04:32:41.228Z,1009.68
2023-03-16T04:35:14.104Z,1009.67
2023-03-16T04:37:47.123Z,1009.65
2023-03-16T04:40:19.789Z,1009.63
2023-03-16T04:42:53.135Z,1009.62
2023-03-16T04:45:26.242Z,1009.62
2023-03-16T04:48:00.088Z,1009.62
2023-03-16T04:50:33.026Z,1009.62
2023-03-16T04:53:05.806Z,1009.62
2023-03-16T04:55:38.917Z,1009.63
2023-03-16T04:58:11.992Z,1009.65
2023-03-16T05:00:45.335Z,1009.64
2023-03-16T05:03:18.834Z,1009.66
2023-03-16T05:05:52.131Z,1009.66
2023-03-16T05:08:24.977Z,1009.66
2023-03-16T05:10:57.948Z,1009.64
2023-03-16T05:13:31.001Z,1009.62
2023-03-16T05:16:03.901Z,1009.61
2023-03-16T05:18:36.858Z,1009.59
2023-03-16T05:21:09.842Z,1009.58
2023-03-16T05:23:56.770Z,1009.57
2023-03-16T05:26:30.003Z,1009.59
2023-03-16T05:29:02.899Z,1009.59
2023-03-16T05:31:36.013Z,1009.59
2023-03-16T05:34:08.858Z,1009.57
2023-03-16T05:36:42.053Z,1009.57
2023-03-16T05:39:14.955Z,1009.54
2023-03-16T05:41:48.208Z,1009.52
2023-03-16T05:44:20.926Z,1009.47
2023-03-16T05:46:54.055Z,1009.45
2023-03-16T05:49:27.003Z,1009.42
2023-03-16T05:52:00.146Z,1009.40
2023-03-16T05:54:33.238Z,1009.37
2023-03-16T05:57:09.862Z,1009.36
2023-03-16T05:59:43.052Z,1009.33
2023-03-16T06:02:16.219Z,1009.31
2023-03-16T06:04:48.987Z,1009.28
2023-03-16T06:07:22.221Z,1009.24
2023-03-16T06:09:54.995Z,1009.22
2023-03-16T06:12:28.064Z,1009.19
2023-03-16T06:15:01.040Z,1009.16
2023-03-16T06:17:34.090Z,1009.14
2023-03-16T06:20:06.947Z,1009.14
2023-03-16T06:22:40.103Z,1009.12
2023-03-16T06:25:13.062Z,1009.12
2023-03-16T06:27:46.098Z,1009.12
2023-03-16T06:30:19.027Z,1009.10
2023-03-16T06:32:52.374Z,1009.12
2023-03-16T06:35:25.285Z,1009.12
2023-03-16T06:37:58.144Z,1009.13
2023-03-16T06:40:31.295Z,1009.12
2023-03-16T06:43:04.270Z,1009.15
2023-03-16T06:45:37.381Z,1009.18
2023-03-16T06:48:10.025Z,1009.21
2023-03-16T06:50:43.271Z,1009.24
2023-03-16T06:53:16.065Z,1009.27
2023-03-16T06:55:49.106Z,1009.28
2023-03-16T06:58:36.097Z,1009.31
2023-03-16T07:01:09.143Z,1009.32
2023-03-16T07:03:42.100Z,1009.32
2023-03-16T07:06:15.588Z,1009.32
2023-03-16T07:08:49.420Z,1009.32
2023-03-16T07:11:22.260Z,1009.34
2023-03-16T07:13:55.330Z,1009.34
2023-03-16T07:16:28.513Z,1009.34
2023-03-16T07:19:01.655Z,1009.33
2023-03-16T07:21:35.313Z,1009.34
2023-03-16T07:24:08.330Z,1009.35
2023-03-16T07:26:41.378Z,1009.34
2023-03-16T07:29:14.336Z,1009.35
2023-03-16T07:31:47.471Z,1009.36
2023-03-16T07:34:20.303Z,1009.36
2023-03-16T07:36:53.405Z,1009.36
2023-03-16T07:39:26.337Z,1009.36
2023-03-16T07:41:59.569Z,1009.38
2023-03-16T07:44:33.370Z,1009.40
2023-03-16T07:47:06.418Z,1009.41
2023-03-16T07:49:39.365Z,1009.42
2023-03-16T07:52:14.458Z,1009.43
2023-03-16T07:54:47.380Z,1009.43
2023-03-16T07:57:20.373Z,1009.42
2023-03-16T07:59:53.046Z,1009.41
2023-03-16T08:02:26.212Z,1009.40
2023-03-16T08:04:59.454Z,1009.38
2023-03-16T08:07:32.477Z,1009.39
2023-03-16T08:10:05.405Z,1009.38
2023-03-16T08:12:38.449Z,1009.37
2023-03-16T08:15:11.377Z,1009.37
2023-03-16T08:17:44.688Z,1009.37
2023-03-16T08:20:18.400Z,1009.36
2023-03-16T08:22:51.453Z,1009.35
2023-03-16T08:25:24.398Z,1009.35
2023-03-16T08:27:57.485Z,1009.35
2023-03-16T08:30:30.926Z,1009.35
2023-03-16T08:33:03.524Z,1009.35
2023-03-16T08:35:36.683Z,1009.38
2023-03-16T08:38:10.363Z,1009.39
2023-03-16T08:40:43.564Z,1009.41
2023-03-16T08:43:16.427Z,1009.41
2023-03-16T08:45:49.435Z,1009.39
2023-03-16T08:48:22.455Z,1009.33
2023-03-16T08:50:55.482Z,1009.29
2023-03-16T08:53:28.487Z,1009.25
2023-03-16T08:56:01.543Z,1009.21
2023-03-16T08:58:34.539Z,1009.18
2023-03-16T09:01:07.430Z,1009.15
2023-03-16T09:03:40.574Z,1009.14
2023-03-16T09:06:13.632Z,1009.12
2023-03-16T09:08:47.472Z,1009.12
2023-03-16T09:11:20.520Z,1009.11
2023-03-16T09:13:53.672Z,1009.11
2023-03-16T09:16:27.704Z,1009.11
2023-03-16T09:19:01.588Z,1009.09
2023-03-16T09:21:37.539Z,1009.09
2023-03-16T09:24:10.504Z,1009.08
2023-03-16T09:26:43.750Z,1009.09
2023-03-16T09:29:17.502Z,1009.07
2023-03-16T09:31:50.668Z,1009.06
2023-03-16T09:36:56.581Z,1009.04
2023-03-16T09:39:29.476Z,1009.00
2023-03-16T09:42:02.252Z,1008.97
2023-03-16T09:44:35.369Z,1008.94
2023-03-16T09:47:11.494Z,1008.93
2023-03-16T09:49:50.399Z,1008.92
2023-03-16T09:52:23.263Z,1008.89
2023-03-16T09:54:56.340Z,1008.87
2023-03-16T09:57:29.684Z,1008.83
2023-03-16T10:00:02.547Z,1008.83
2023-03-16T10:02:35.284Z,1008.82
2023-03-16T10:05:08.559Z,1008.81
2023-03-16T10:07:41.408Z,1008.79
2023-03-16T10:10:20.178Z,1008.75
2023-03-16T10:12:53.401Z,1008.70
2023-03-16T10:15:26.641Z,1008.65
2023-03-16T10:17:59.435Z,1008.62
2023-03-16T10:20:32.471Z,1008.59
2023-03-16T10:23:05.300Z,1008.56
2023-03-16T10:25:38.449Z,1008.57
2023-03-16T10:28:11.329Z,1008.57
2023-03-16T10:30:44.307Z,1008.54
2023-03-16T10:33:17.361Z,1008.52
2023-03-16T10:35:50.537Z,1008.51
2023-03-16T10:38:23.301Z,1008.50
2023-03-16T10:40:56.589Z,1008.49
2023-03-16T10:43:29.426Z,1008.49
2023-03-16T10:46:02.902Z,1008.49
2023-03-16T10:48:35.584Z,1008.48
2023-03-16T10:51:08.639Z,1008.45
2023-03-16T10:53:41.661Z,1008.45
2023-03-16T10:56:14.665Z,1008.47
2023-03-16T10:58:47.615Z,1008.48
2023-03-16T11:01:20.741Z,1008.48
2023-03-16T11:03:59.586Z,1008.46
2023-03-16T11:06:32.500Z,1008.42
2023-03-16T11:09:05.647Z,1008.39
2023-03-16T11:11:38.663Z,1008.38
2023-03-16T11:14:11.653Z,1008.37
2023-03-16T11:16:44.803Z,1008.36
2023-03-16T11:19:17.368Z,1008.32
2023-03-16T11:21:50.594Z,1008.28
2023-03-16T11:24:23.647Z,1008.23
2023-03-16T11:26:56.697Z,1008.19
2023-03-16T11:29:29.704Z,1008.16
2023-03-16T11:32:02.602Z,1008.13
2023-03-16T11:34:35.513Z,1008.11
2023-03-16T11:37:08.547Z,1008.08
2023-03-16T11:39:41.538Z,1008.06
2023-03-16T11:42:14.407Z,1008.05
2023-03-16T11:44:50.109Z,1008.04
2023-03-16T11:47:20.441Z,1008.03
2023-03-16T11:49:53.547Z,1008.03
2023-03-16T11:52:26.582Z,1008.02
2023-03-16T11:54:59.761Z,1008.00
2023-03-16T11:57:32.463Z,1007.96
2023-03-16T12:00:05.462Z,1007.93
2023-03-16T12:02:38.714Z,1007.87
2023-03-16T12:05:11.458Z,1007.83
2023-03-16T12:07:44.833Z,1007.78
2023-03-16T12:10:17.454Z,1007.74
2023-03-16T12:12:50.450Z,1007.68
2023-03-16T12:15:23.453Z,1007.63
2023-03-16T12:17:57.000Z,1007.60
2023-03-16T12:20:30.624Z,1007.58
2023-03-16T12:23:03.623Z,1007.56
2023-03-16T12:25:36.714Z,1007.53
2023-03-16T12:28:09.460Z,1007.51
2023-03-16T12:30:42.588Z,1007.47
2023-03-16T12:33:15.490Z,1007.44
2023-03-16T12:35:48.760Z,1007.42
2023-03-16T12:38:21.532Z,1007.40
2023-03-16T12:40:54.614Z,1007.40
2023-03-16T12:43:27.852Z,1007.39
2023-03-16T12:46:00.869Z,1007.38
2023-03-16T12:48:33.501Z,1007.35
2023-03-16T12:51:06.525Z,1007.33
2023-03-16T12:53:53.775Z,1007.30
2023-03-16T12:56:26.758Z,1007.29
2023-03-16T12:58:59.777Z,1007.25
2023-03-16T13:01:32.963Z,1007.19
2023-03-16T13:04:05.819Z,1007.13
2023-03-16T13:06:38.808Z,1007.08
2023-03-16T13:09:11.582Z,1007.04
2023-03-16T13:11:44.756Z,1006.98
2023-03-16T13:14:17.558Z,1006.93
2023-03-16T13:16:50.793Z,1006.93
2023-03-16T13:19:23.597Z,1006.90
2023-03-16T13:21:56.689Z,1006.89
2023-03-16T13:24:29.757Z,1006.86
2023-03-16T13:27:08.482Z,1006.84
2023-03-16T13:29:41.585Z,1006.81
2023-03-16T13:32:14.654Z,1006.80
2023-03-16T13:34:47.788Z,1006.78
2023-03-16T13:37:24.392Z,1006.75
2023-03-16T13:40:11.533Z,1006.73
2023-03-16T13:42:45.787Z,1006.69
2023-03-16T13:45:18.613Z,1006.67
2023-03-16T13:47:51.883Z,1006.64
2023-03-16T13:50:24.749Z,1006.60
2023-03-16T13:52:57.746Z,1006.56
2023-03-16T13:55:30.774Z,1006.52
2023-03-16T13:58:03.884Z,1006.48
2023-03-16T14:00:36.833Z,1006.45
2023-03-16T14:03:09.609Z,1006.41
2023-03-16T14:05:42.729Z,1006.36
2023-03-16T14:08:15.607Z,1006.34
2023-03-16T14:10:48.811Z,1006.33
2023-03-16T14:13:21.605Z,1006.31
2023-03-16T14:15:54.888Z,1006.29
2023-03-16T14:18:27.751Z,1006.26
2023-03-16T14:21:00.727Z,1006.23
2023-03-16T14:23:33.852Z,1006.21
2023-03-16T14:26:06.666Z,1006.19
2023-03-16T14:28:39.664Z,1006.18
2023-03-16T14:31:13.052Z,1006.16
2023-03-16T14:33:45.841Z,1006.14
2023-03-16T14:36:19.025Z,1006.11
2023-03-16T14:38:51.974Z,1006.08
2023-03-16T14:41:24.789Z,1006.07
2023-03-16T14:43:57.879Z,1006.02
2023-03-16T14:46:30.972Z,1006.00
2023-03-16T14:49:03.828Z,1005.96
2023-03-16T14:51:36.769Z,1005.93
2023-03-16T14:54:09.693Z,1005.90
2023-03-16T14:56:42.829Z,1005.88
2023-03-16T14:59:15.697Z,1005.86
2023-03-16T15:01:48.984Z,1005.84
2023-03-16T15:04:21.714Z,1005.84
2023-03-16T15:06:54.821Z,1005.82
2023-03-16T15:09:27.820Z,1005.81
2023-03-16T15:12:01.108Z,1005.79
2023-03-16T15:14:33.986Z,1005.79
2023-03-16T15:17:06.717Z,1005.76
2023-03-16T15:19:39.949Z,1005.74
2023-03-16T15:22:12.891Z,1005.71
2023-03-16T15:24:45.768Z,1005.70
2023-03-16T15:27:18.773Z,1005.67
2023-03-16T15:29:51.746Z,1005.68
2023-03-16T15:32:24.774Z,1005.65
2023-03-16T15:34:57.804Z,1005.62
2023-03-16T15:37:30.898Z,1005.62
2023-03-16T15:40:03.909Z,1005.59
2023-03-16T15:42:36.990Z,1005.59
2023-03-16T15:45:09.793Z,1005.56
2023-03-16T15:47:43.060Z,1005.53
2023-03-16T15:50:15.813Z,1005.50
2023-03-16T15:52:49.069Z,1005.47
2023-03-16T15:55:21.911Z,1005.45
2023-03-16T15:57:59.166Z,1005.40
2023-03-16T16:00:31.948Z,1005.37
2023-03-16T16:03:04.975Z,1005.34
2023-03-16T16:05:38.243Z,1005.31
2023-03-16T16:08:12.060Z,1005.28
2023-03-16T16:10:45.138Z,1005.23
2023-03-16T16:13:18.140Z,1005.18
2023-03-16T16:15:51.817Z,1005.13
2023-03-16T16:18:24.136Z,1005.11
2023-03-16T16:20:57.179Z,1005.08
2023-03-16T16:23:30.149Z,1005.04
2023-03-16T16:26:03.159Z,1005.03
2023-03-16T16:28:36.221Z,1005.03
2023-03-16T16:31:09.061Z,1005.05
2023-03-16T16:33:41.962Z,1005.03
2023-03-16T16:36:15.167Z,1005.04
2023-03-16T16:38:48.118Z,1005.04
2023-03-16T16:41:20.828Z,1005.03
2023-03-16T16:43:53.902Z,1005.02
2023-03-16T16:46:27.232Z,1005.02
2023-03-16T16:48:59.985Z,1004.99
2023-03-16T16:51:33.156Z,1004.98
2023-03-16T16:54:05.838Z,1004.99
2023-03-16T16:56:38.958Z,1005.00
2023-03-16T16:59:11.892Z,1004.99
2023-03-16T17:01:44.863Z,1004.98
2023-03-16T17:04:18.028Z,1004.98
2023-03-16T17:06:51.092Z,1004.99
2023-03-16T17:09:24.179Z,1005.01
2023-03-16T17:11:57.025Z,1005.02
2023-03-16T17:14:29.902Z,1005.02
2023-03-16T17:17:03.089Z,1005.03
2023-03-16T17:19:35.902Z,1005.02
2023-03-16T17:22:08.886Z,1005.02
2023-03-16T17:24:42.017Z,1005.03
2023-03-16T17:27:14.934Z,1005.03
2023-03-16T17:29:47.943Z,1005.03
2023-03-16T17:32:20.980Z,1005.01
2023-03-16T17:34:53.932Z,1004.99
2023-03-16T17:37:27.057Z,1004.97
2023-03-16T17:40:00.109Z,1004.93
2023-03-16T17:42:33.199Z,1004.89
2023-03-16T17:45:06.266Z,1004.88
2023-03-16T17:47:39.071Z,1004.85
2023-03-16T17:50:12.216Z,1004.84
2023-03-16T17:52:45.242Z,1004.83
2023-03-16T17:55:18.365Z,1004.81
2023-03-16T17:57:51.275Z,1004.77
2023-03-16T18:00:24.503Z,1004.75
2023-03-16T18:02:58.226Z,1004.74
2023-03-16T18:05:31.026Z,1004.74
2023-03-16T18:08:09.878Z,1004.72
2023-03-16T18:10:43.034Z,1004.71
2023-03-16T18:13:16.302Z,1004.69
2023-03-16T18:15:49.164Z,1004.68
2023-03-16T18:18:22.119Z,1004.64
2023-03-16T18:20:55.075Z,1004.62
2023-03-16T18:23:28.063Z,1004.58
2023-03-16T18:26:04.216Z,1004.55
2023-03-16T18:28:36.973Z,1004.52
2023-03-16T18:31:10.070Z,1004.49
2023-03-16T18:33:43.115Z,1004.47
2023-03-16T18:36:16.052Z,1004.43
2023-03-16T18:38:49.034Z,1004.40
2023-03-16T18:41:22.168Z,1004.38
2023-03-16T18:43:55.081Z,1004.38
2023-03-16T18:46:28.310Z,1004.36
2023-03-16T18:49:01.189Z,1004.34
2023-03-16T18:51:34.118Z,1004.34
2023-03-16T18:54:07.277Z,1004.33
2023-03-16T18:56:46.220Z,1004.34
2023-03-16T18:59:19.358Z,1004.33
2023-03-16T19:01:52.150Z,1004.32
2023-03-16T19:04:25.164Z,1004.31
2023-03-16T19:06:58.061Z,1004.29
2023-03-16T19:09:31.450Z,1004.29
2023-03-16T19:12:04.400Z,1004.29
2023-03-16T19:14:37.183Z,1004.27
2023-03-16T19:17:10.081Z,1004.26
2023-03-16T19:19:43.164Z,1004.25
2023-03-16T19:22:16.088Z,1004.26
2023-03-16T19:24:49.634Z,1004.27
2023-03-16T19:27:23.245Z,1004.28
2023-03-16T19:29:56.058Z,1004.29
2023-03-16T19:32:29.460Z,1004.29
2023-03-16T19:35:02.183Z,1004.29
2023-03-16T19:37:35.231Z,1004.27
2023-03-16T19:40:08.357Z,1004.25
2023-03-16T19:42:43.296Z,1004.23
2023-03-16T19:45:16.117Z,1004.22
2023-03-16T19:47:49.571Z,1004.20
2023-03-16T19:50:22.364Z,1004.19
2023-03-16T19:52:55.383Z,1004.17
2023-03-16T19:55:28.945Z,1004.18
2023-03-16T19:58:04.194Z,1004.18
2023-03-16T20:00:37.387Z,1004.19
2023-03-16T20:03:10.164Z,1004.18
2023-03-16T20:05:43.250Z,1004.18
2023-03-16T20:08:16.142Z,1004.17
2023-03-16T20:10:49.381Z,1004.16
2023-03-16T20:13:22.348Z,1004.14
2023-03-16T20:15:55.243Z,1004.12
2023-03-16T20:18:28.384Z,1004.10
2023-03-16T20:21:01.186Z,1004.09
2023-03-16T20:23:34.426Z,1004.08
2023-03-16T20:26:07.378Z,1004.06
2023-03-16T20:28:40.228Z,1004.06
2023-03-16T20:31:13.245Z,1004.07
2023-03-16T20:33:46.345Z,1004.06
2023-03-16T20:36:19.178Z,1004.07
2023-03-16T20:38:55.130Z,1004.05
2023-03-16T20:41:34.259Z,1004.04
2023-03-16T20:44:07.427Z,1004.03
2023-03-16T20:46:40.440Z,1004.01
2023-03-16T20:49:13.234Z,1003.98
2023-03-16T20:51:46.438Z,1003.96
2023-03-16T20:54:19.297Z,1003.93
2023-03-16T20:56:52.288Z,1003.91
2023-03-16T20:59:25.452Z,1003.89
2023-03-16T21:01:58.200Z,1003.87
2023-03-16T21:04:31.406Z,1003.84
2023-03-16T21:07:04.225Z,1003.84
2023-03-16T21:09:37.294Z,1003.83
2023-03-16T21:12:10.302Z,1003.82
2023-03-16T21:14:43.378Z,1003.81
2023-03-16T21:17:16.264Z,1003.82
2023-03-16T21:19:49.496Z,1003.81
2023-03-16T21:22:26.317Z,1003.79
2023-03-16T21:24:59.566Z,1003.77
2023-03-16T21:27:32.396Z,1003.76
2023-03-16T21:30:05.598Z,1003.75
2023-03-16T21:32:38.303Z,1003.74
2023-03-16T21:35:11.300Z,1003.72
2023-03-16T21:37:44.589Z,1003.71
2023-03-16T21:40:17.534Z,1003.69
2023-03-16T21:42:50.615Z,1003.71
2023-03-16T21:45:23.414Z,1003.74
2023-03-16T21:47:56.366Z,1003.75
2023-03-16T21:50:29.871Z,1003.76
2023-03-16T21:53:02.476Z,1003.77
2023-03-16T21:55:35.684Z,1003.76
2023-03-16T21:58:08.326Z,1003.73
2023-03-16T22:00:41.784Z,1003.73
2023-03-16T22:03:15.656Z,1003.72
2023-03-16T22:05:48.685Z,1003.71
2023-03-16T22:08:21.646Z,1003.70
2023-03-16T22:10:54.795Z,1003.67
2023-03-16T22:13:28.607Z,1003.66
2023-03-16T22:16:01.658Z,1003.64
2023-03-16T22:18:34.431Z,1003.62
2023-03-16T22:21:07.700Z,1003.59
2023-03-16T22:23:40.692Z,1003.56
2023-03-16T22:26:13.580Z,1003.51
2023-03-16T22:28:46.636Z,1003.47
2023-03-16T22:31:19.751Z,1003.46
2023-03-16T22:33:52.753Z,1003.42
2023-03-16T22:36:25.692Z,1003.39
2023-03-16T22:38:58.717Z,1003.36
2023-03-16T22:41:31.848Z,1003.36
2023-03-16T22:44:05.690Z,1003.34
2023-03-16T22:46:38.489Z,1003.35
2023-03-16T22:49:11.659Z,1003.35
2023-03-16T22:51:44.861Z,1003.34
2023-03-16T22:54:18.876Z,1003.32
2023-03-16T22:56:52.730Z,1003.31
2023-03-16T22:59:25.456Z,1003.29
2023-03-16T23:01:58.782Z,1003.27
2023-03-16T23:04:31.944Z,1003.24
2023-03-16T23:07:05.858Z,1003.20
2023-03-16T23:09:38.416Z,1003.17
2023-03-16T23:12:11.664Z,1003.15
2023-03-16T23:14:44.691Z,1003.14
2023-03-16T23:17:17.724Z,1003.09
2023-03-16T23:19:50.722Z,1003.08
2023-03-16T23:22:23.691Z,1003.07
2023-03-16T23:24:56.511Z,1003.06
2023-03-16T23:27:29.637Z,1003.06
2023-03-16T23:30:02.807Z,1003.06
2023-03-16T23:32:35.980Z,1003.06
2023-03-16T23:35:09.814Z,1003.03
2023-03-16T23:37:42.871Z,1003.02
2023-03-16T23:40:15.451Z,1003.02
2023-03-16T23:43:02.728Z,1003.01
2023-03-16T23:45:35.591Z,1003.02
2023-03-16T23:48:08.812Z,1003.02
2023-03-16T23:50:41.576Z,1003.01
2023-03-16T23:53:14.501Z,1003.02
2023-03-16T23:55:47.573Z,1003.00
2023-03-16T23:58:20.608Z,1002.99
